Time;durP1;ratioP1;P1;durP2;ratioP2;P2;SDS_P1;SDS_P2;PMS_P1;PMS_P2;Temp;Humidity;BMP_temperature;BMP_pressure;BME280_temperature;BME280_humidity;BME280_pressure;Samples;Min_cycle;Max_cycle;Signal;HPM_P1;HPM_P2
2023/05/10 11:34:01;;;;;;;4.13;3.72;;;;;;;;;;5135785;23;20048;-76
2023/05/10 11:36:29;;;;;;;3.88;3.45;;;;;;;;;;4937052;29;20047;-77
2023/05/10 11:38:55;;;;;;;4.43;4.03;;;;;;;;;;4937900;29;20050;-74
2023/05/10 11:41:22;;;;;;;3.70;3.40;;;;;;;;;;4938012;29;20490;-77
2023/05/10 11:43:50;;;;;;;3.30;3.05;;;;;;;;;;4920630;29;20505;-77
2023/05/10 16:18:36;;;;;;;5.03;3.67;;;;;;;;;;4928089;29;20060;-77
2023/05/10 16:21:01;;;;;;;4.47;2.63;;;;;;;;;;4918459;29;20044;-80
2023/05/10 16:23:27;;;;;;;2.50;1.20;;;;;;;;;;4918151;29;20024;-77
2023/05/10 16:25:53;;;;;;;1.75;1.65;;;;;;;;;;4918160;29;20025;-82
2023/05/10 16:28:21;;;;;;;2.45;1.17;;;;;;;;;;4918052;29;20459;-79
2023/05/10 16:30:47;;;;;;;4.70;2.15;;;;;;;;;;4918261;29;20047;-79
2023/05/10 16:33:13;;;;;;;3.70;1.60;;;;;;;;;;4917970;29;20416;-77
2023/05/10 16:35:39;;;;;;;1.77;1.38;;;;;;;;;;4916811;29;20067;-82
2023/05/10 16:38:04;;;;;;;1.35;1.25;;;;;;;;;;4918003;29;20028;-81
2023/05/10 16:40:31;;;;;;;1.27;1.17;;;;;;;;;;4917786;29;20028;-78
2023/05/10 16:42:56;;;;;;;2.03;1.40;;;;;;;;;;4918313;29;20482;-87
2023/05/10 16:45:22;;;;;;;2.55;1.13;;;;;;;;;;4918224;29;20032;-78
2023/05/10 16:47:48;;;;;;;1.10;1.10;;;;;;;;;;4917923;29;20485;-82
2023/05/10 16:50:14;;;;;;;2.10;1.20;;;;;;;;;;4918012;29;20032;-79
2023/05/10 16:52:39;;;;;;;1.92;1.10;;;;;;;;;;4917607;29;20064;-77
2023/05/10 16:55:05;;;;;;;1.83;1.65;;;;;;;;;;4917251;29;20122;-77
2023/05/10 16:57:31;;;;;;;1.13;1.13;;;;;;;;;;4917584;29;20383;-77
2023/05/10 16:59:57;;;;;;;3.25;1.15;;;;;;;;;;4917717;29;20454;-77
2023/05/10 17:02:23;;;;;;;1.00;1.00;;;;;;;;;;4917516;29;20117;-76
2023/05/10 17:04:48;;;;;;;2.08;1.88;;;;;;;;;;4917353;29;20039;-76
2023/05/10 17:07:14;;;;;;;1.10;1.10;;;;;;;;;;4917558;29;20455;-77
2023/05/10 17:09:41;;;;;;;2.25;1.38;;;;;;;;;;4916035;29;20471;-75
2023/05/10 17:12:06;;;;;;;1.27;1.17;;;;;;;;;;4917471;29;20036;-76
2023/05/10 17:14:32;;;;;;;1.08;0.90;;;;;;;;;;4917217;29;20455;-87
2023/05/10 17:16:58;;;;;;;47.20;15.90;;;;;;;;;;4917631;29;20032;-77
2023/05/10 17:19:23;;;;;;;14.52;5.28;;;;;;;;;;4917297;29;20389;-78
2023/05/10 17:21:49;;;;;;;2.90;1.77;;;;;;;;;;4917175;29;20088;-77
2023/05/10 17:24:14;;;;;;;2.05;1.30;;;;;;;;;;4919077;29;20028;-88
2023/05/10 17:26:40;;;;;;;2.25;1.50;;;;;;;;;;4920061;29;20027;-87
2023/05/10 17:29:06;;;;;;;1.98;1.83;;;;;;;;;;4919933;29;20032;-89
2023/05/10 17:31:31;;;;;;;9.27;6.13;;;;;;;;;;4920098;29;20468;-87
2023/05/10 17:33:58;;;;;;;3.42;2.83;;;;;;;;;;4921838;29;20046;-93
2023/05/10 17:36:24;;;;;;;2.40;2.20;;;;;;;;;;4931038;29;20079;-93
2023/05/10 17:38:50;;;;;;;2.30;2.10;;;;;;;;;;4926453;29;20060;-92
2023/05/10 17:41:15;;;;;;;3.10;2.70;;;;;;;;;;4925316;29;20080;-91
2023/05/10 17:43:41;;;;;;;3.42;3.13;;;;;;;;;;4924266;29;20032;-90
2023/05/10 17:46:06;;;;;;;1.75;1.33;;;;;;;;;;4924581;29;20187;-89
2023/05/10 17:48:32;;;;;;;1.20;1.20;;;;;;;;;;4923545;29;20101;-87
2023/05/10 17:50:58;;;;;;;2.25;1.90;;;;;;;;;;4922626;29;20042;-88
2023/05/10 17:53:23;;;;;;;1.40;1.30;;;;;;;;;;4922081;29;20031;-84
2023/05/10 17:55:50;;;;;;;2.55;1.90;;;;;;;;;;4922130;29;20039;-85
2023/05/10 17:58:16;;;;;;;0.90;0.90;;;;;;;;;;4922091;29;20028;-82
2023/05/10 18:00:41;;;;;;;1.50;1.00;;;;;;;;;;4922143;29;20032;-83
2023/05/10 18:03:07;;;;;;;1.23;0.90;;;;;;;;;;4921987;29;20036;-84
2023/05/10 18:05:36;;;;;;;1.17;1.10;;;;;;;;;;4921457;29;20369;-84
2023/05/10 18:08:04;;;;;;;1.02;1.02;;;;;;;;;;4919636;29;20054;-84
2023/05/10 18:10:30;;;;;;;3.47;1.00;;;;;;;;;;4921156;29;20542;-80
2023/05/10 18:12:57;;;;;;;2.45;1.13;;;;;;;;;;4922527;29;20036;-84
2023/05/10 18:15:23;;;;;;;3.47;3.17;;;;;;;;;;4921814;29;20039;-85
2023/05/10 18:17:49;;;;;;;2.42;1.83;;;;;;;;;;4921626;29;20027;-87
2023/05/10 18:20:14;;;;;;;2.55;1.70;;;;;;;;;;4921945;29;20048;-83
2023/05/10 18:22:40;;;;;;;2.40;1.20;;;;;;;;;;4921465;29;20059;-90
2023/05/10 18:25:06;;;;;;;2.20;1.98;;;;;;;;;;4921634;29;20036;-86
2023/05/10 18:27:31;;;;;;;2.00;1.80;;;;;;;;;;4921335;29;20075;-85
2023/05/10 18:29:57;;;;;;;2.15;1.60;;;;;;;;;;4921073;29;20119;-86
2023/05/10 18:32:22;;;;;;;1.70;1.60;;;;;;;;;;4920970;29;20032;-86
2023/05/10 18:34:48;;;;;;;3.83;2.47;;;;;;;;;;4903900;29;20032;-86
2023/05/10 18:37:14;;;;;;;3.25;1.90;;;;;;;;;;4919533;29;20050;-86
2023/05/10 18:39:40;;;;;;;3.33;3.03;;;;;;;;;;4919693;29;20368;-82
2023/05/10 18:42:06;;;;;;;4.35;3.95;;;;;;;;;;4920701;29;20032;-83
2023/05/10 18:44:31;;;;;;;2.80;2.60;;;;;;;;;;4920437;29;20059;-82
2023/05/10 18:46:58;;;;;;;3.35;2.40;;;;;;;;;;4920799;29;20456;-84
2023/05/10 18:49:24;;;;;;;1.33;1.23;;;;;;;;;;4921035;29;20039;-86
2023/05/10 18:51:50;;;;;;;3.33;1.30;;;;;;;;;;4918872;29;20042;-76
2023/05/10 18:54:15;;;;;;;1.38;1.00;;;;;;;;;;4919808;29;20470;-74
2023/05/10 18:56:43;;;;;;;1.95;1.33;;;;;;;;;;4920227;29;20024;-75
2023/05/10 18:59:10;;;;;;;1.20;1.10;;;;;;;;;;4919799;29;20032;-76
2023/05/10 19:01:36;;;;;;;3.65;2.33;;;;;;;;;;4919733;29;20032;-75
2023/05/10 19:04:01;;;;;;;1.38;1.23;;;;;;;;;;4919583;29;20108;-75
2023/05/10 19:06:26;;;;;;;1.13;1.02;;;;;;;;;;4919430;29;20043;-74
2023/05/10 19:08:52;;;;;;;1.33;1.23;;;;;;;;;;4919784;29;20032;-75
2023/05/10 19:11:20;;;;;;;1.50;1.40;;;;;;;;;;4918164;29;20028;-75
2023/05/10 19:13:46;;;;;;;1.30;1.20;;;;;;;;;;4918503;29;20472;-75
2023/05/10 19:16:16;;;;;;;1.60;1.50;;;;;;;;;;4919401;29;20028;-75
2023/05/10 19:18:42;;;;;;;1.40;1.30;;;;;;;;;;4919192;29;20051;-75
2023/05/10 19:21:09;;;;;;;1.45;1.25;;;;;;;;;;4919274;29;20067;-75
2023/05/10 19:23:37;;;;;;;1.30;1.20;;;;;;;;;;4919341;29;20472;-74
2023/05/10 19:26:03;;;;;;;2.08;1.00;;;;;;;;;;4919269;29;20028;-78
2023/05/10 19:28:29;;;;;;;1.30;1.20;;;;;;;;;;4919094;29;20032;-77
2023/05/10 19:30:56;;;;;;;1.30;1.20;;;;;;;;;;4919274;29;20034;-78
2023/05/10 19:33:22;;;;;;;1.02;0.85;;;;;;;;;;4919444;29;20028;-78
2023/05/10 19:35:51;;;;;;;1.50;1.13;;;;;;;;;;4918958;29;20087;-79
2023/05/10 19:38:24;;;;;;;1.30;1.20;;;;;;;;;;4917745;29;20044;-78
2023/05/10 19:40:56;;;;;;;1.52;1.40;;;;;;;;;;4919208;29;20028;-75
2023/05/10 19:43:23;;;;;;;3.35;1.30;;;;;;;;;;4918900;29;20039;-75
2023/05/10 19:45:49;;;;;;;2.35;1.10;;;;;;;;;;4918614;29;20028;-75
2023/05/10 19:48:14;;;;;;;1.05;1.00;;;;;;;;;;4918686;29;20028;-75
2023/05/10 19:50:40;;;;;;;1.35;0.80;;;;;;;;;;4918712;29;20027;-75
2023/05/10 19:53:07;;;;;;;1.50;1.40;;;;;;;;;;4918773;29;20039;-75
2023/05/10 19:55:35;;;;;;;1.20;1.10;;;;;;;;;;4918565;29;20111;-84
2023/05/10 19:58:01;;;;;;;1.40;1.00;;;;;;;;;;4917741;29;20476;-84
2023/05/10 20:00:27;;;;;;;1.33;1.05;;;;;;;;;;4917469;29;20044;-85
2023/05/10 20:02:53;;;;;;;1.67;1.13;;;;;;;;;;4918840;29;20024;-84
2023/05/10 20:05:20;;;;;;;1.40;1.30;;;;;;;;;;4918591;29;20164;-84
2023/05/10 20:07:45;;;;;;;1.55;1.20;;;;;;;;;;4918878;29;20028;-76
2023/05/10 20:10:11;;;;;;;2.00;1.20;;;;;;;;;;4918540;29;20034;-76
2023/05/10 20:12:36;;;;;;;1.10;1.10;;;;;;;;;;4918432;29;20028;-76
2023/05/10 20:15:03;;;;;;;1.23;1.00;;;;;;;;;;4918502;29;20099;-76
2023/05/10 20:17:29;;;;;;;1.20;1.10;;;;;;;;;;4918517;29;20095;-76
2023/05/10 20:19:54;;;;;;;1.73;1.20;;;;;;;;;;4918187;29;20551;-75
2023/05/10 20:22:20;;;;;;;2.20;0.90;;;;;;;;;;4918446;29;20031;-76
2023/05/10 20:24:46;;;;;;;2.90;1.20;;;;;;;;;;4918128;29;20480;-79
2023/05/10 20:27:11;;;;;;;1.50;1.30;;;;;;;;;;4925050;29;20040;-83
2023/05/10 20:29:37;;;;;;;;;;;;;;;;;;4923018;29;20279;-75
2023/05/10 20:32:03;;;;;;;1.60;1.40;;;;;;;;;;4934543;29;19921;-85
2023/05/10 20:34:28;;;;;;;2.42;1.60;;;;;;;;;;4906332;29;20040;-75
2023/05/10 20:36:54;;;;;;;1.40;1.30;;;;;;;;;;4936914;29;20039;-83
2023/05/10 20:39:19;;;;;;;1.33;1.23;;;;;;;;;;4936982;29;20039;-83
2023/05/10 20:41:45;;;;;;;1.33;1.23;;;;;;;;;;4935658;29;20364;-76
2023/05/10 20:44:11;;;;;;;1.88;1.50;;;;;;;;;;4925292;29;20039;-78
2023/05/10 20:46:36;;;;;;;1.40;1.30;;;;;;;;;;4917390;29;20035;-76
2023/05/10 20:49:03;;;;;;;1.83;1.40;;;;;;;;;;4917774;29;20032;-76
2023/05/10 20:51:29;;;;;;;2.10;1.40;;;;;;;;;;4916460;29;20408;-76
2023/05/10 20:53:55;;;;;;;1.58;1.48;;;;;;;;;;4917699;29;20031;-76
2023/05/10 20:56:21;;;;;;;1.80;1.58;;;;;;;;;;4916246;29;20043;-79
2023/05/10 20:58:47;;;;;;;1.55;1.45;;;;;;;;;;4917456;29;20020;-78
2023/05/10 21:01:12;;;;;;;1.40;1.30;;;;;;;;;;4928263;29;20036;-75
2023/05/10 21:03:37;;;;;;;1.73;1.50;;;;;;;;;;4935134;29;20127;-78
2023/05/10 21:06:03;;;;;;;1.10;0.95;;;;;;;;;;4936383;29;20075;-83
2023/05/10 21:08:28;;;;;;;2.05;1.00;;;;;;;;;;4936009;29;20028;-82
2023/05/10 21:10:54;;;;;;;1.08;1.02;;;;;;;;;;4936400;29;20020;-78
2023/05/10 21:13:19;;;;;;;2.25;1.05;;;;;;;;;;4927768;29;20078;-79
2023/05/10 21:15:44;;;;;;;;;;;;;;;;;;4917671;29;20283;-75
2023/05/10 21:18:10;;;;;;;;;;;;;;;;;;4917604;29;19919;-78
2023/05/10 21:20:35;;;;;;;;;;;;;;;;;;4916574;29;19926;-76
2023/05/10 21:23:00;;;;;;;;;;;;;;;;;;4917885;29;19915;-82
2023/05/10 21:25:26;;;;;;;;;;;;;;;;;;4917685;29;19919;-82
2023/05/10 21:27:51;;;;;;;;;;;;;;;;;;4917696;29;19926;-84
2023/05/10 21:30:16;;;;;;;;;;;;;;;;;;4917734;29;19915;-81
2023/05/10 21:32:42;;;;;;;;;;;;;;;;;;4917901;29;19923;-79
2023/05/10 21:35:07;;;;;;;;;;;;;;;;;;4917791;29;19919;-76
2023/05/10 21:37:33;;;;;;;;;;;;;;;;;;4917912;29;19919;-76
2023/05/10 21:39:58;;;;;;;;;;;;;;;;;;4917971;29;20018;-80
2023/05/10 21:42:23;;;;;;;;;;;;;;;;;;4917814;29;19915;-76
2023/05/10 21:44:48;;;;;;;;;;;;;;;;;;4917401;29;19919;-77
2023/05/10 21:47:14;;;;;;;;;;;;;;;;;;4917697;29;19927;-80
2023/05/10 21:49:39;;;;;;;;;;;;;;;;;;4917672;29;19968;-83
2023/05/10 21:52:04;;;;;;;;;;;;;;;;;;4917684;29;19974;-76
2023/05/10 21:54:30;;;;;;;;;;;;;;;;;;4917518;29;19919;-76
2023/05/10 21:56:55;;;;;;;;;;;;;;;;;;4917472;29;19920;-76
2023/05/10 21:59:20;;;;;;;;;;;;;;;;;;4917533;29;19975;-76
2023/05/10 22:01:46;;;;;;;;;;;;;;;;;;4916114;29;19942;-75
2023/05/10 22:04:11;;;;;;;;;;;;;;;;;;4917650;29;19938;-78
2023/05/10 22:06:37;;;;;;;;;;;;;;;;;;4917267;29;19929;-80
2023/05/10 22:09:03;;;;;;;;;;;;;;;;;;4917402;29;19919;-75
2023/05/10 22:11:28;;;;;;;;;;;;;;;;;;4917471;29;19927;-82
2023/05/10 22:13:53;;;;;;;;;;;;;;;;;;4917506;29;19919;-75
2023/05/10 22:16:19;;;;;;;;;;;;;;;;;;4917207;29;19955;-77
